Time;durP1;ratioP1;P1;durP2;ratioP2;P2;SDS_P1;SDS_P2;PMS_P1;PMS_P2;Temp;Humidity;BMP_temperature;BMP_pressure;BME280_temperature;BME280_humidity;BME280_pressure;Samples;Min_cycle;Max_cycle;Signal;HPM_P1;HPM_P2
2020/12/30 00:00:51;;;;;;;21.05;12.43;;;;;;;1.75;100.00;99593.66;4988068;28;20026;-81
2020/12/30 00:03:17;;;;;;;17.42;11.32;;;;;;;1.78;100.00;99601.28;4986325;28;20038;-80
2020/12/30 00:05:42;;;;;;;18.27;11.35;;;;;;;1.68;100.00;99588.88;4969091;28;20047;-80
2020/12/30 00:08:08;;;;;;;18.42;10.43;;;;;;;1.47;100.00;99562.56;4974577;28;20039;-80
2020/12/30 00:10:33;;;;;;;16.48;10.93;;;;;;;1.56;100.00;99568.03;4955192;28;20037;-80
2020/12/30 00:12:59;;;;;;;20.17;11.73;;;;;;;1.68;100.00;99599.41;4988971;28;20429;-80
2020/12/30 00:15:25;;;;;;;18.58;10.32;;;;;;;1.42;100.00;99556.88;4968243;28;20572;-80
2020/12/30 00:17:50;;;;;;;14.35;9.65;;;;;;;1.71;100.00;99606.19;4970900;28;20058;-81
2020/12/30 00:20:17;;;;;;;14.98;10.52;;;;;;;1.71;100.00;99603.56;4994350;28;20022;-81
2020/12/30 00:22:42;;;;;;;16.40;10.50;;;;;;;1.50;100.00;99571.97;4971655;28;20026;-80
2020/12/30 00:25:08;;;;;;;12.80;9.68;;;;;;;1.53;100.00;99575.22;4984028;28;20036;-80
2020/12/30 00:27:34;;;;;;;18.70;10.48;;;;;;;1.64;100.00;99587.47;4988769;28;20046;-80
2020/12/30 00:30:00;;;;;;;15.25;9.75;;;;;;;1.74;100.00;99605.97;4986921;28;20033;-80
2020/12/30 00:32:25;;;;;;;14.93;10.02;;;;;;;1.78;100.00;99601.28;4989105;28;20325;-80
2020/12/30 00:34:51;;;;;;;15.57;10.48;;;;;;;1.81;100.00;99604.50;4985544;28;20382;-81
2020/12/30 00:37:16;;;;;;;13.23;10.05;;;;;;;1.80;100.00;99597.56;4986531;28;20026;-80
2020/12/30 00:39:42;;;;;;;15.07;10.02;;;;;;;1.84;100.00;99600.78;4976374;28;20549;-80
2020/12/30 00:42:07;;;;;;;16.60;10.95;;;;;;;1.89;100.00;99603.03;4988135;28;20034;-80
2020/12/30 00:44:33;;;;;;;17.90;10.57;;;;;;;1.59;100.00;99554.63;4990044;28;20476;-80
2020/12/30 00:46:59;;;;;;;17.55;10.90;;;;;;;1.93;100.00;99596.56;4986406;28;20225;-80
2020/12/30 00:49:25;;;;;;;16.83;11.15;;;;;;;1.95;100.00;99600.72;4993666;28;20491;-80
2020/12/30 00:51:54;;;;;;;16.90;10.52;;;;;;;1.98;100.00;99604.88;4987162;28;20491;-80
2020/12/30 00:54:19;;;;;;;17.02;9.77;;;;;;;1.98;100.00;99605.72;4970263;28;20038;-80
2020/12/30 00:56:48;;;;;;;18.65;10.48;;;;;;;1.96;100.00;99609.47;4985832;28;20034;-81
2020/12/30 00:59:14;;;;;;;;;;;;;;;1.90;100.00;99607.31;4993818;28;20033;-80
2020/12/30 01:01:39;;;;;;;24.00;10.63;;;;;;;1.62;100.00;99570.16;4984623;28;20376;-81
2020/12/30 01:04:05;;;;;;;21.75;12.32;;;;;;;1.89;100.00;99603.88;4987985;28;20485;-78
2020/12/30 01:06:31;;;;;;;22.10;12.63;;;;;;;1.89;100.00;99616.19;4984862;28;20429;-80
2020/12/30 01:08:56;;;;;;;21.25;12.02;;;;;;;1.84;100.00;99609.50;4988410;28;20104;-80
2020/12/30 01:11:26;;;;;;;20.33;11.90;;;;;;;1.71;100.00;99593.06;4984492;28;20389;-80
2020/12/30 01:13:51;;;;;;;23.15;12.77;;;;;;;1.82;100.00;99607.97;4972242;28;20030;-81
2020/12/30 01:16:17;;;;;;;25.52;13.63;;;;;;;1.93;100.00;99626.31;4986085;28;20035;-80
2020/12/30 01:18:43;;;;;;;21.42;13.48;;;;;;;1.88;100.00;99625.88;4972745;28;20484;-81
2020/12/30 01:21:08;;;;;;;23.85;13.23;;;;;;;1.94;100.00;99635.88;4969041;28;20037;-82
2020/12/30 01:23:33;;;;;;;23.70;14.18;;;;;;;2.00;100.00;99647.69;4990088;28;20242;-80
2020/12/30 01:25:59;;;;;;;26.38;14.88;;;;;;;2.01;100.00;99646.72;4983826;28;20038;-80
2020/12/30 01:28:24;;;;;;;29.42;15.48;;;;;;;2.04;100.00;99648.25;4955906;28;20034;-81
2020/12/30 01:30:50;;;;;;;26.67;15.13;;;;;;;2.06;100.00;99656.88;4986995;28;20054;-80
2020/12/30 01:33:15;;;;;;;33.22;16.45;;;;;;;1.86;100.00;99619.91;4987911;28;20039;-81
2020/12/30 01:35:41;;;;;;;27.45;15.75;;;;;;;2.10;100.00;99647.78;4967583;28;20084;-81
2020/12/30 01:38:06;;;;;;;31.33;15.90;;;;;;;1.94;100.00;99617.47;5004187;28;20034;-82
2020/12/30 01:40:32;;;;;;;33.17;18.20;;;;;;;2.12;100.00;99651.94;4986823;28;20029;-81
2020/12/30 01:42:57;;;;;;;37.00;17.95;;;;;;;2.18;100.00;99660.28;4988079;28;20026;-81
2020/12/30 01:45:23;;;;;;;34.53;18.83;;;;;;;1.43;100.00;99545.34;4986817;28;20034;-81
2020/12/30 01:47:48;;;;;;;33.13;17.92;;;;;;;2.00;100.00;99642.44;5009504;28;20034;-82
2020/12/30 01:50:14;;;;;;;40.90;19.98;;;;;;;2.19;100.00;99670.69;4953665;28;20026;-81
2020/12/30 01:52:41;;;;;;;39.83;18.88;;;;;;;2.18;100.00;99674.28;4973909;28;20117;-82
2020/12/30 01:55:06;;;;;;;38.35;18.38;;;;;;;2.19;100.00;99675.94;4982977;28;20104;-82
2020/12/30 01:57:32;;;;;;;38.72;18.73;;;;;;;2.21;100.00;99667.94;4971452;28;20447;-81
2020/12/30 01:59:57;;;;;;;37.97;19.48;;;;;;;2.25;100.00;99680.72;4985607;28;20048;-77
2020/12/30 02:02:24;;;;;;;38.70;19.88;;;;;;;1.75;100.00;99591.84;4990458;28;20460;-78
2020/12/30 02:04:51;;;;;;;38.70;20.02;;;;;;;2.28;100.00;99663.81;4970327;28;20103;-81
2020/12/30 02:07:17;;;;;;;40.20;20.23;;;;;;;2.25;100.00;99674.59;4974088;28;20544;-81
2020/12/30 02:09:43;;;;;;;36.25;19.83;;;;;;;1.92;100.00;99618.56;4988742;28;20073;-81
2020/12/30 02:12:09;;;;;;;43.83;20.73;;;;;;;2.02;100.00;99648.41;4970932;28;20400;-81
2020/12/30 02:14:35;;;;;;;43.75;21.02;;;;;;;2.18;100.00;99676.09;4983230;28;20408;-81
2020/12/30 02:17:00;;;;;;;43.28;22.10;;;;;;;2.14;100.00;99675.50;4990053;28;20031;-81
2020/12/30 02:19:26;;;;;;;46.45;22.35;;;;;;;2.12;100.00;99667.72;4989590;28;20034;-81
2020/12/30 02:21:55;;;;;;;45.38;22.50;;;;;;;1.84;100.00;99632.34;5020815;28;20037;-82
2020/12/30 02:24:30;;;;;;;46.25;22.90;;;;;;;1.96;100.00;99664.72;4956727;28;20057;-81
2020/12/30 02:26:56;;;;;;;48.70;24.27;;;;;;;1.76;100.00;99632.97;4987499;28;20069;-81
2020/12/30 02:29:22;;;;;;;50.30;23.95;;;;;;;1.98;100.00;99670.66;4991744;28;20041;-81
2020/12/30 02:31:48;;;;;;;55.97;25.65;;;;;;;2.02;100.00;99672.09;4990345;28;20207;-81
2020/12/30 02:34:14;;;;;;;53.67;24.52;;;;;;;1.98;100.00;99673.28;4991288;28;20157;-81
2020/12/30 02:36:39;;;;;;;54.75;24.48;;;;;;;1.97;100.00;99672.47;4988403;28;20043;-81
2020/12/30 02:39:04;;;;;;;51.17;24.98;;;;;;;1.96;100.00;99675.25;4993121;28;20469;-81
2020/12/30 02:41:30;;;;;;;48.22;23.55;;;;;;;1.66;100.00;99638.16;4988419;28;20081;-81
2020/12/30 02:43:56;;;;;;;56.28;24.88;;;;;;;1.85;100.00;99670.84;4986926;28;20033;-81
2020/12/30 02:46:21;;;;;;;56.72;26.35;;;;;;;1.93;100.00;99681.56;4985964;28;20041;-81
2020/12/30 02:48:47;;;;;;;53.60;25.23;;;;;;;1.93;100.00;99688.63;4973053;28;20026;-81
2020/12/30 02:51:12;;;;;;;53.85;24.67;;;;;;;1.81;100.00;99675.53;5003593;28;20049;-81
2020/12/30 02:53:38;;;;;;;55.78;25.08;;;;;;;1.75;100.00;99664.69;4992227;28;20037;-81
2020/12/30 02:56:03;;;;;;;56.53;24.80;;;;;;;1.51;100.00;99629.72;4991782;28;20416;-81
2020/12/30 02:58:29;;;;;;;52.50;24.05;;;;;;;1.88;100.00;99696.91;4975843;28;20485;-81
2020/12/30 03:00:54;;;;;;;53.72;25.63;;;;;;;1.74;100.00;99669.09;4986000;28;20192;-82
2020/12/30 03:03:19;;;;;;;55.20;24.42;;;;;;;1.89;100.00;99692.47;4988487;28;20034;-82
2020/12/30 03:05:45;;;;;;;57.38;26.65;;;;;;;1.89;100.00;99689.84;4985245;28;20041;-81
2020/12/30 03:08:10;;;;;;;56.92;26.33;;;;;;;1.78;100.00;99681.03;4993016;28;20034;-80
2020/12/30 03:10:36;;;;;;;51.17;25.33;;;;;;;1.66;100.00;99661.81;4987693;28;20034;-80
2020/12/30 03:13:02;;;;;;;59.28;26.38;;;;;;;1.90;100.00;99699.41;4974231;28;20045;-81
2020/12/30 03:15:27;;;;;;;57.25;26.77;;;;;;;1.79;100.00;99672.19;4984438;28;20056;-81
2020/12/30 03:17:53;;;;;;;61.88;27.30;;;;;;;1.95;100.00;99694.63;4985117;28;20061;-81
2020/12/30 03:20:18;;;;;;;53.80;25.40;;;;;;;1.96;100.00;99691.03;4988734;28;20053;-82
2020/12/30 03:22:43;;;;;;;59.08;26.08;;;;;;;1.52;100.00;99615.63;4991700;28;20085;-81
2020/12/30 03:25:09;;;;;;;56.40;24.92;;;;;;;1.73;100.00;99650.81;5006670;28;20132;-81
2020/12/30 03:27:34;;;;;;;53.30;23.65;;;;;;;2.01;100.00;99696.72;4990137;28;20069;-81
2020/12/30 03:30:00;;;;;;;54.30;24.58;;;;;;;1.96;100.00;99693.66;4989045;28;20033;-81
2020/12/30 03:32:26;;;;;;;51.25;23.40;;;;;;;2.02;100.00;99702.84;4991218;28;20061;-81
2020/12/30 03:34:53;;;;;;;49.80;23.65;;;;;;;1.98;100.00;99707.50;4988536;28;20042;-81
2020/12/30 03:37:18;;;;;;;45.58;23.63;;;;;;;1.97;100.00;99700.56;4955689;28;20030;-82
2020/12/30 03:39:44;;;;;;;43.72;20.98;;;;;;;1.74;100.00;99663.81;4983614;28;20400;-81
2020/12/30 03:42:09;;;;;;;37.97;18.75;;;;;;;1.02;100.00;99558.28;4994451;28;20026;-81
2020/12/30 03:44:34;;;;;;;34.38;17.25;;;;;;;1.93;100.00;99702.63;4969742;28;20065;-82
2020/12/30 03:47:00;;;;;;;33.30;16.05;;;;;;;1.92;100.00;99708.84;4988490;28;20645;-81
2020/12/30 03:49:26;;;;;;;32.75;16.42;;;;;;;1.97;100.00;99721.63;4988914;28;20783;-81
2020/12/30 03:51:52;;;;;;;32.92;15.65;;;;;;;1.55;100.00;99659.22;4991113;28;20286;-81
2020/12/30 03:54:17;;;;;;;21.63;12.90;;;;;;;1.76;100.00;99684.75;4986830;28;20054;-81
2020/12/30 03:56:43;;;;;;;20.20;10.82;;;;;;;1.95;100.00;99727.00;4988613;28;20030;-81
2020/12/30 03:59:08;;;;;;;21.00;10.80;;;;;;;1.80;100.00;99691.44;4990575;28;20409;-81
2020/12/30 04:01:33;;;;;;;18.70;9.25;;;;;;;1.72;100.00;99692.03;4973083;28;20030;-81
2020/12/30 04:03:59;;;;;;;13.68;8.82;;;;;;;1.94;100.00;99716.63;4955909;28;20081;-82
2020/12/30 04:06:24;;;;;;;14.93;8.70;;;;;;;1.66;100.00;99668.88;4984076;28;20031;-81
2020/12/30 04:08:50;;;;;;;16.25;8.80;;;;;;;1.65;100.00;99668.03;4956212;28;20503;-81
2020/12/30 04:11:15;;;;;;;14.38;7.75;;;;;;;1.96;100.00;99719.97;4988045;28;20089;-81
2020/12/30 04:13:41;;;;;;;13.82;7.80;;;;;;;1.95;100.00;99720.94;4985460;28;20452;-81
2020/12/30 04:16:06;;;;;;;13.90;8.18;;;;;;;1.94;100.00;99719.25;4987533;28;20083;-82
2020/12/30 04:18:32;;;;;;;15.15;8.10;;;;;;;1.78;100.00;99704.72;4988750;28;20033;-82
2020/12/30 04:20:57;;;;;;;17.02;8.25;;;;;;;1.87;100.00;99720.69;4985060;28;20041;-81
2020/12/30 04:23:23;;;;;;;13.65;7.30;;;;;;;1.82;100.00;99719.31;4988346;28;20034;-81
2020/12/30 04:25:48;;;;;;;14.95;8.00;;;;;;;1.79;100.00;99730.06;4988377;28;20034;-82
2020/12/30 04:28:15;;;;;;;16.27;7.68;;;;;;;1.59;100.00;99683.47;4988692;28;20050;-81
2020/12/30 04:30:41;;;;;;;13.27;7.63;;;;;;;1.78;100.00;99725.75;4985649;28;20157;-81
2020/12/30 04:33:06;;;;;;;14.43;7.57;;;;;;;1.79;100.00;99718.69;4985979;28;20046;-82
2020/12/30 04:35:32;;;;;;;13.00;6.75;;;;;;;1.62;100.00;99699.00;4986579;28;20041;-81
2020/12/30 04:37:57;;;;;;;13.35;7.45;;;;;;;1.51;100.00;99677.06;5005148;28;20497;-82
2020/12/30 04:40:23;;;;;;;9.75;6.40;;;;;;;1.57;100.00;99703.78;4990554;28;20030;-81
2020/12/30 04:42:48;;;;;;;12.05;6.70;;;;;;;1.65;100.00;99719.81;5006953;28;20077;-81
2020/12/30 04:45:14;;;;;;;10.48;6.82;;;;;;;1.39;100.00;99672.78;4953761;28;20049;-82
2020/12/30 04:47:39;;;;;;;13.57;6.97;;;;;;;1.77;100.00;99729.34;4971881;28;20069;-81
2020/12/30 04:50:05;;;;;;;13.70;6.32;;;;;;;1.55;100.00;99688.16;4973766;28;20041;-82
2020/12/30 04:52:30;;;;;;;12.32;6.07;;;;;;;1.74;100.00;99732.22;4971071;28;20026;-82
2020/12/30 04:54:56;;;;;;;9.40;6.85;;;;;;;1.76;100.00;99730.31;4983814;28;20054;-78
2020/12/30 04:57:23;;;;;;;11.90;6.25;;;;;;;1.75;100.00;99731.25;4955164;28;20468;-79
2020/12/30 04:59:49;;;;;;;12.10;6.60;;;;;;;1.59;100.00;99707.16;4972071;28;20501;-82
2020/12/30 05:02:14;;;;;;;11.45;7.13;;;;;;;0.79;100.00;99580.31;4981862;28;20025;-82
2020/12/30 05:04:40;;;;;;;13.45;6.28;;;;;;;1.84;100.00;99738.41;4976504;28;20700;-82
2020/12/30 05:07:09;;;;;;;12.38;6.90;;;;;;;1.89;100.00;99735.44;5004636;28;20034;-81
2020/12/30 05:09:35;;;;;;;9.32;6.68;;;;;;;1.32;100.00;99634.78;4976404;28;20034;-82
2020/12/30 05:12:02;;;;;;;14.90;6.70;;;;;;;2.01;100.00;99738.00;4988568;28;20061;-83
2020/12/30 05:14:27;;;;;;;12.55;7.20;;;;;;;2.08;100.00;99739.16;4970151;28;20341;-82
2020/12/30 05:16:53;;;;;;;11.75;6.97;;;;;;;2.13;100.00;99739.63;4985910;28;20034;-81
2020/12/30 05:19:19;;;;;;;10.27;6.43;;;;;;;2.18;100.00;99740.09;4971010;28;20034;-81
2020/12/30 05:21:44;;;;;;;13.68;6.75;;;;;;;2.04;100.00;99711.44;5017833;28;20113;-82
2020/12/30 05:24:10;;;;;;;12.10;6.82;;;;;;;2.10;100.00;99711.75;4986372;28;20041;-82
2020/12/30 05:26:35;;;;;;;9.52;6.63;;;;;;;2.29;100.00;99739.22;4975970;28;20096;-82
2020/12/30 05:29:01;;;;;;;12.77;6.40;;;;;;;2.31;100.00;99747.81;4971131;28;20116;-82
2020/12/30 05:31:27;;;;;;;8.93;6.03;;;;;;;1.60;100.00;99637.81;4969975;28;20097;-81
2020/12/30 05:33:53;;;;;;;11.68;6.82;;;;;;;2.31;100.00;99745.19;4969789;28;20155;-82
2020/12/30 05:36:18;;;;;;;11.02;5.82;;;;;;;1.72;100.00;99649.13;4983902;28;20260;-82
2020/12/30 05:38:44;;;;;;;11.38;5.53;;;;;;;2.13;100.00;99708.06;4970256;28;20397;-82
2020/12/30 05:41:24;;;;;;;12.18;5.80;;;;;;;2.27;100.00;99727.97;4985596;28;20022;-83
2020/12/30 05:43:49;;;;;;;14.23;5.00;;;;;;;2.51;100.00;99755.88;4979492;28;20030;-82
2020/12/30 05:46:25;;;;;;;11.48;5.53;;;;;;;1.96;100.00;99667.34;4984393;28;20125;-82
2020/12/30 05:48:52;;;;;;;13.77;6.43;;;;;;;2.42;100.00;99736.41;5003081;28;20053;-82
2020/12/30 05:51:25;;;;;;;12.13;6.05;;;;;;;2.33;100.00;99716.09;4998579;28;20126;-82
2020/12/30 05:54:09;;;;;;;16.13;6.03;;;;;;;2.53;100.00;99736.34;4970266;28;20018;-81
2020/12/30 05:56:36;;;;;;;13.00;6.72;;;;;;;2.66;100.00;99759.00;4989838;28;20389;-82
2020/12/30 05:59:01;;;;;;;13.00;6.15;;;;;;;2.44;100.00;99729.22;4974149;28;20034;-82
2020/12/30 06:01:29;;;;;;;14.57;6.60;;;;;;;2.62;100.00;99763.72;4974282;28;20486;-82
2020/12/30 06:03:55;;;;;;;10.07;6.25;;;;;;;2.63;100.00;99767.16;4991999;28;20022;-81
2020/12/30 06:06:21;;;;;;;13.45;6.85;;;;;;;2.61;100.00;99769.94;5019311;28;20034;-81
2020/12/30 06:08:50;;;;;;;10.75;6.57;;;;;;;2.05;100.00;99677.09;4990486;28;20022;-81
2020/12/30 06:11:25;;;;;;;12.02;7.50;;;;;;;2.70;100.00;99769.16;4989308;28;20030;-81
2020/12/30 06:13:51;;;;;;;11.45;7.30;;;;;;;2.42;100.00;99710.06;4978698;28;20030;-82
2020/12/30 06:16:23;;;;;;;12.93;7.43;;;;;;;2.74;100.00;99767.94;4988204;28;20042;-82
2020/12/30 06:18:48;;;;;;;11.82;7.28;;;;;;;2.80;100.00;99773.66;4985391;28;20061;-82
2020/12/30 06:21:14;;;;;;;13.18;7.60;;;;;;;2.84;100.00;99781.19;4957108;28;20030;-83
2020/12/30 06:23:40;;;;;;;13.13;7.07;;;;;;;2.82;100.00;99782.25;4975272;28;20050;-82
2020/12/30 06:26:05;;;;;;;11.82;8.90;;;;;;;2.77;100.00;99771.28;4986411;28;20034;-82
2020/12/30 06:28:31;;;;;;;11.13;7.25;;;;;;;2.83;100.00;99792.69;4979152;28;20018;-81
2020/12/30 06:30:56;;;;;;;10.68;7.05;;;;;;;2.81;100.00;99786.72;4989598;28;20129;-82
2020/12/30 06:33:22;;;;;;;9.50;6.57;;;;;;;2.75;100.00;99795.97;4978141;28;20113;-82
2020/12/30 06:35:53;;;;;;;12.35;6.85;;;;;;;2.70;100.00;99803.41;4987738;28;20069;-81
2020/12/30 06:38:26;;;;;;;9.63;6.72;;;;;;;2.69;100.00;99808.81;4990483;28;20037;-82
2020/12/30 06:40:55;;;;;;;9.50;6.50;;;;;;;2.63;100.00;99811.94;4987666;28;20030;-82
2020/12/30 06:43:35;;;;;;;11.50;7.55;;;;;;;2.55;100.00;99808.16;4989810;28;20026;-82
2020/12/30 06:46:01;;;;;;;13.70;6.43;;;;;;;2.49;100.00;99807.84;4987797;28;20038;-81
2020/12/30 06:48:27;;;;;;;12.40;7.80;;;;;;;2.49;100.00;99807.84;4986718;28;20081;-81
2020/12/30 06:50:52;;;;;;;14.35;8.23;;;;;;;2.46;100.00;99816.81;4995952;28;20100;-82
2020/12/30 06:53:31;;;;;;;14.00;8.27;;;;;;;2.41;100.00;99819.81;4984327;28;20109;-82
2020/12/30 06:55:57;;;;;;;18.52;10.50;;;;;;;2.35;100.00;99822.13;4964848;28;20030;-81
2020/12/30 06:58:51;;;;;;;14.68;9.25;;;;;;;2.35;100.00;99825.59;4990108;28;20156;-81
2020/12/30 07:01:20;;;;;;;20.95;9.23;;;;;;;2.09;100.00;99794.34;4986154;28;20065;-82
2020/12/30 07:03:47;;;;;;;20.17;11.88;;;;;;;2.29;100.00;99836.63;4995058;28;20077;-82
2020/12/30 07:06:28;;;;;;;22.38;10.30;;;;;;;2.28;100.00;99843.69;4969502;28;20057;-82
2020/12/30 07:08:58;;;;;;;19.40;10.93;;;;;;;2.26;100.00;99842.97;4989455;28;20036;-82
2020/12/30 07:11:36;;;;;;;20.05;11.73;;;;;;;2.26;100.00;99847.38;4990392;28;20034;-82
2020/12/30 07:14:05;;;;;;;21.17;11.02;;;;;;;1.99;100.00;99809.16;4985502;28;20041;-82
2020/12/30 07:16:35;;;;;;;24.25;11.57;;;;;;;2.20;100.00;99845.28;4982061;28;20512;-82
2020/12/30 07:19:01;;;;;;;19.27;11.52;;;;;;;1.84;100.00;99791.03;4986330;28;20046;-81
2020/12/30 07:21:26;;;;;;;24.02;12.95;;;;;;;1.89;100.00;99801.19;4986369;28;20519;-82
2020/12/30 07:23:53;;;;;;;26.15;14.98;;;;;;;2.01;100.00;99824.84;4988676;28;20042;-81
2020/12/30 07:26:19;;;;;;;28.65;15.25;;;;;;;2.12;100.00;99848.50;4986592;28;20034;-82
2020/12/30 07:28:45;;;;;;;30.13;16.30;;;;;;;1.98;100.00;99831.19;4972862;28;20049;-81
2020/12/30 07:31:16;;;;;;;37.47;17.38;;;;;;;1.96;100.00;99841.03;4999360;28;20074;-82
2020/12/30 07:33:42;;;;;;;36.22;17.85;;;;;;;2.06;100.00;99870.91;4968812;28;20065;-81
2020/12/30 07:36:12;;;;;;;34.78;18.65;;;;;;;2.01;100.00;99864.34;4981616;28;20061;-82
2020/12/30 07:38:37;;;;;;;37.05;19.80;;;;;;;2.02;100.00;99869.47;4983036;28;20034;-82
2020/12/30 07:41:09;;;;;;;35.70;19.40;;;;;;;2.00;100.00;99871.38;4994602;28;20058;-82
2020/12/30 07:43:46;;;;;;;36.40;18.85;;;;;;;1.81;100.00;99854.44;4984859;28;20061;-82
2020/12/30 07:46:21;;;;;;;40.35;19.58;;;;;;;1.83;100.00;99856.94;4967848;28;20132;-82
2020/12/30 07:48:46;;;;;;;34.67;19.63;;;;;;;2.03;100.00;99884.28;4992215;28;20030;-81
2020/12/30 07:51:13;;;;;;;35.45;19.30;;;;;;;1.98;100.00;99871.50;4985333;28;20142;-82
2020/12/30 07:53:39;;;;;;;35.33;19.58;;;;;;;2.19;100.00;99891.81;4986519;28;20038;-82
2020/12/30 07:56:04;;;;;;;29.15;16.27;;;;;;;2.07;100.00;99861.19;5014402;28;20406;-83
2020/12/30 07:58:30;;;;;;;26.40;14.45;;;;;;;2.35;100.00;99896.69;4990481;28;20112;-82
2020/12/30 08:00:55;;;;;;;23.98;14.15;;;;;;;2.23;100.00;99880.06;4987002;28;20048;-82
2020/12/30 08:03:21;;;;;;;26.45;12.30;;;;;;;2.30;100.00;99872.53;4987534;28;20045;-83
2020/12/30 08:05:50;;;;;;;16.95;10.27;;;;;;;2.39;100.00;99886.75;4983145;28;20378;-84
2020/12/30 08:08:17;;;;;;;16.45;8.50;;;;;;;2.48;100.00;99896.53;4974269;28;20030;-84
2020/12/30 08:10:44;;;;;;;12.43;7.70;;;;;;;2.68;100.00;99917.78;4999623;28;20049;-86
2020/12/30 08:13:09;;;;;;;14.25;7.50;;;;;;;2.55;100.00;99899.50;4958043;28;20058;-83
2020/12/30 08:15:35;;;;;;;9.88;6.82;;;;;;;2.76;100.00;99928.53;4997656;28;20122;-83
2020/12/30 08:18:00;;;;;;;12.77;7.15;;;;;;;2.81;100.00;99936.06;4986037;28;20137;-85
2020/12/30 08:20:26;;;;;;;10.75;7.05;;;;;;;2.85;100.00;99940.13;5002554;28;20065;-85
2020/12/30 08:22:57;;;;;;;11.45;6.57;;;;;;;2.89;100.00;99945.00;4985991;28;20030;-83
2020/12/30 08:25:23;;;;;;;12.10;7.45;;;;;;;2.94;100.00;99944.63;4983262;28;20038;-86
2020/12/30 08:27:49;;;;;;;12.63;7.20;;;;;;;2.22;100.00;99830.19;4989815;28;20117;-83
2020/12/30 08:30:14;;;;;;;9.88;6.53;;;;;;;2.98;100.00;99953.97;4969156;28;20132;-84
2020/12/30 08:32:57;;;;;;;12.43;6.95;;;;;;;3.03;100.00;99957.09;4987997;28;20113;-84
2020/12/30 08:35:25;;;;;;;9.95;6.63;;;;;;;3.04;100.00;99960.53;4981973;28;20023;-83
2020/12/30 08:37:51;;;;;;;11.43;6.57;;;;;;;3.06;100.00;99966.53;4984658;28;20038;-82
2020/12/30 08:40:28;;;;;;;9.82;6.65;;;;;;;3.12;100.00;99965.19;4999744;28;20101;-83
2020/12/30 08:42:53;;;;;;;12.65;6.70;;;;;;;3.21;100.00;99973.19;4995336;28;20053;-82
2020/12/30 08:45:29;;;;;;;13.45;6.57;;;;;;;3.15;100.00;99951.75;4998543;28;20117;-80
2020/12/30 08:47:56;;;;;;;9.25;6.20;;;;;;;3.23;100.00;99957.22;4938986;28;20030;-83
2020/12/30 08:50:23;;;;;;;9.57;6.43;;;;;;;3.47;100.00;99967.53;4971206;28;20062;-84
2020/12/30 08:52:49;;;;;;;8.98;5.90;;;;;;;3.23;100.00;99909.75;4989037;28;20366;-82
2020/12/30 08:55:14;;;;;;;10.65;5.85;;;;;;;3.68;100.00;99972.81;4981058;28;20038;-83
2020/12/30 08:57:44;;;;;;;10.43;5.72;;;;;;;3.77;100.00;99968.56;4987672;28;20113;-82
2020/12/30 09:00:22;;;;;;;8.27;5.55;;;;;;;3.82;100.00;99974.25;4969930;28;20400;-83
2020/12/30 09:02:49;;;;;;;9.48;5.90;;;;;;;3.80;100.00;99972.72;4986835;28;20117;-81
2020/12/30 09:05:31;;;;;;;9.63;5.55;;;;;;;3.82;100.00;99982.16;4983019;28;20034;-81
2020/12/30 09:08:17;;;;;;;6.32;4.80;;;;;;;3.81;100.00;99977.03;4985591;28;20038;-80
2020/12/30 09:10:46;;;;;;;8.75;5.18;;;;;;;3.73;100.00;99984.78;4980038;28;20039;-81
2020/12/30 09:13:22;;;;;;;10.23;5.03;;;;;;;3.57;100.00;99950.91;4983842;28;20156;-82
2020/12/30 09:15:54;;;;;;;7.00;4.20;;;;;;;3.57;100.00;99959.69;4969836;28;20026;-83
2020/12/30 09:18:23;;;;;;;5.85;4.78;;;;;;;3.58;100.00;99964.00;4969450;28;20037;-85
2020/12/30 09:20:48;;;;;;;8.00;4.68;;;;;;;3.54;100.00;99959.94;4984109;28;20038;-85
2020/12/30 09:23:14;;;;;;;9.00;5.63;;;;;;;3.51;100.00;99968.09;4968946;28;20038;-85
2020/12/30 09:25:40;;;;;;;6.57;5.00;;;;;;;3.62;100.00;99998.88;5003331;28;20110;-84
2020/12/30 09:28:22;;;;;;;8.25;5.35;;;;;;;3.21;100.00;99938.03;4987956;28;20057;-84
2020/12/30 09:30:49;;;;;;;10.38;5.40;;;;;;;3.53;100.00;100001.28;4980814;28;20104;-84
2020/12/30 09:33:16;;;;;;;11.18;6.30;;;;;;;3.17;100.00;99950.66;4993085;28;20042;-84
2020/12/30 09:35:42;;;;;;;13.23;8.32;;;;;;;3.32;100.00;99980.22;4966870;28;20018;-84
2020/12/30 09:38:07;;;;;;;8.65;5.95;;;;;;;3.49;100.00;100014.88;4971897;28;20046;-84
2020/12/30 09:40:43;;;;;;;11.52;6.40;;;;;;;3.35;100.00;99995.75;4983462;28;20438;-84
2020/12/30 09:43:19;;;;;;;9.00;6.28;;;;;;;3.47;100.00;100024.72;4992220;28;20615;-84
2020/12/30 09:45:45;;;;;;;13.23;8.05;;;;;;;3.39;100.00;100008.69;4989229;28;20026;-84
2020/12/30 09:48:15;;;;;;;13.40;7.32;;;;;;;3.37;100.00;99985.09;4986104;28;20038;-84
2020/12/30 09:50:42;;;;;;;9.60;7.95;;;;;;;3.78;100.00;100025.66;4983021;28;20042;-84
2020/12/30 09:53:07;;;;;;;17.88;9.23;;;;;;;3.94;100.00;100027.81;4964551;28;20030;-83
2020/12/30 09:55:33;;;;;;;19.38;10.93;;;;;;;4.10;100.00;100026.53;4992605;28;20030;-84
2020/12/30 09:57:59;;;;;;;15.60;9.60;;;;;;;4.18;100.00;100018.75;4977900;28;20122;-84
2020/12/30 10:00:24;;;;;;;12.73;8.93;;;;;;;4.43;100.00;100032.47;4981393;28;20142;-87
2020/12/30 10:02:50;;;;;;;9.35;7.15;;;;;;;4.60;100.00;100031.03;4996264;28;20113;-86
2020/12/30 10:05:16;;;;;;;8.82;6.40;;;;;;;4.62;100.00;100020.31;4976473;28;20030;-86
2020/12/30 10:07:42;;;;;;;8.45;4.75;;;;;;;4.81;98.97;100038.03;4994964;28;20117;-84
2020/12/30 10:10:07;;;;;;;10.32;4.70;;;;;;;4.78;98.73;100030.38;4980649;28;20077;-86
2020/12/30 10:12:38;;;;;;;8.30;3.60;;;;;;;4.55;98.01;99994.41;4984122;28;20113;-86
2020/12/30 10:15:07;;;;;;;10.18;3.33;;;;;;;4.77;97.96;100015.47;4962857;28;20034;-87
2020/12/30 10:17:33;;;;;;;7.10;3.10;;;;;;;5.00;97.73;100026.66;4982711;28;20512;-85
2020/12/30 10:19:58;;;;;;;4.25;2.47;;;;;;;5.05;96.87;100027.91;4985346;28;20038;-85
2020/12/30 10:22:24;;;;;;;5.35;2.72;;;;;;;5.19;97.62;100025.84;4947427;28;20038;-85
2020/12/30 10:24:50;;;;;;;8.38;4.35;;;;;;;5.31;97.33;100030.03;4976941;28;20160;-85
2020/12/30 10:27:15;;;;;;;13.50;6.65;;;;;;;5.34;97.04;100023.63;4980186;28;20584;-84
2020/12/30 10:29:41;;;;;;;10.95;5.55;;;;;;;5.44;95.51;100028.91;4967571;28;20046;-85
2020/12/30 10:32:07;;;;;;;22.35;11.68;;;;;;;5.45;94.86;100041.16;4986734;28;20138;-85
2020/12/30 10:34:32;;;;;;;23.10;14.40;;;;;;;5.52;95.25;100037.00;4979006;28;20150;-85
2020/12/30 10:37:04;;;;;;;8.25;5.03;;;;;;;5.33;95.78;100014.84;4991500;28;20046;-85
2020/12/30 10:39:30;;;;;;;8.68;4.03;;;;;;;5.42;95.18;100022.94;4962751;28;20129;-80
2020/12/30 10:41:56;;;;;;;11.35;7.30;;;;;;;5.46;94.54;100033.09;4996351;28;20520;-85
2020/12/30 10:44:22;;;;;;;6.18;2.92;;;;;;;5.25;94.36;100004.16;4997806;28;20545;-84
2020/12/30 10:46:47;;;;;;;11.77;6.60;;;;;;;5.25;94.36;100011.22;4983281;28;20416;-84
2020/12/30 10:49:13;;;;;;;12.73;8.75;;;;;;;5.36;94.54;100037.56;4966765;28;20110;-85
2020/12/30 10:51:39;;;;;;;5.35;2.83;;;;;;;5.26;94.29;100032.28;4983168;28;20113;-86
2020/12/30 10:54:06;;;;;;;4.35;2.05;;;;;;;5.01;94.17;99991.31;4987253;28;20400;-86
2020/12/30 10:56:31;;;;;;;4.97;1.70;;;;;;;5.25;92.83;100041.19;4983471;28;20105;-85
2020/12/30 10:58:56;;;;;;;4.82;2.03;;;;;;;5.15;93.14;100038.50;4985831;28;20121;-86
2020/12/30 11:01:22;;;;;;;24.00;21.20;;;;;;;4.17;92.96;99914.09;4987749;28;20106;-86
2020/12/30 11:03:48;;;;;;;16.35;12.15;;;;;;;4.56;93.95;99990.81;4989891;28;20560;-85
2020/12/30 11:06:13;;;;;;;4.97;2.92;;;;;;;4.84;94.03;100045.72;4970269;28;20113;-85
2020/12/30 11:08:39;;;;;;;4.15;1.80;;;;;;;4.59;93.10;100000.28;4998658;28;20125;-91
2020/12/30 11:11:05;;;;;;;3.05;1.10;;;;;;;4.68;92.72;100010.03;4942248;28;20652;-79
2020/12/30 11:13:30;;;;;;;2.78;1.10;;;;;;;4.64;93.39;99997.25;4976888;28;20057;-78
2020/12/30 11:15:56;;;;;;;4.32;1.50;;;;;;;5.03;92.67;100052.84;4974846;28;20038;-82
2020/12/30 11:18:21;;;;;;;3.13;1.45;;;;;;;5.06;92.85;100061.34;4980607;28;20113;-80
2020/12/30 11:20:47;;;;;;;2.72;1.20;;;;;;;5.09;93.12;100070.78;4991382;28;20068;-80
2020/12/30 11:23:13;;;;;;;3.65;1.30;;;;;;;5.08;94.07;100073.59;4960700;28;20042;-83